TAF and METAR

Could not understand the following METAR

YWHA 230300Z AUTO 14007KT 110V170 9999 // NCD 32/05 Q1019
No TAF available for Whyalla Airport
Whyalla Airport in Australia at 13m

Latest 5 airports